createdAt,value
2017-03-25T00:00:08.856Z,0
2017-03-25T00:01:23.600Z,0
2017-03-25T00:02:38.094Z,0
2017-03-25T00:03:53.105Z,0
2017-03-25T00:05:07.226Z,0
2017-03-25T00:06:22.294Z,0
2017-03-25T00:07:36.412Z,0
2017-03-25T00:08:51.096Z,0
2017-03-25T00:10:05.525Z,0
2017-03-25T00:11:19.813Z,0
2017-03-25T00:12:33.973Z,0
2017-03-25T00:13:49.384Z,0
2017-03-25T00:15:03.520Z,0
2017-03-25T00:16:17.736Z,0
2017-03-25T00:17:33.073Z,0
2017-03-25T00:18:48.027Z,0
2017-03-25T00:20:02.974Z,0
2017-03-25T00:21:17.258Z,0
2017-03-25T00:22:31.814Z,0
2017-03-25T00:23:46.604Z,0
2017-03-25T00:25:01.143Z,0
2017-03-25T00:26:16.093Z,0
2017-03-25T00:27:30.628Z,0
2017-03-25T00:28:45.081Z,0
2017-03-25T00:29:59.855Z,0
2017-03-25T00:31:14.565Z,0
2017-03-25T00:32:28.997Z,0
2017-03-25T00:33:43.281Z,0
2017-03-25T00:34:57.645Z,0
2017-03-25T00:36:15.199Z,0
2017-03-25T00:37:29.921Z,0
2017-03-25T00:38:44.394Z,0
2017-03-25T00:39:58.955Z,0
2017-03-25T00:41:13.572Z,0
2017-03-25T00:42:28.025Z,0
2017-03-25T00:43:42.973Z,0
2017-03-25T00:44:57.557Z,0
2017-03-25T00:46:11.848Z,0
2017-03-25T00:47:26.600Z,0
2017-03-25T00:48:41.576Z,0
2017-03-25T00:49:56.194Z,0
2017-03-25T00:51:11.549Z,0
2017-03-25T00:52:25.602Z,0
2017-03-25T00:53:41.474Z,0
2017-03-25T00:54:55.638Z,0
2017-03-25T00:56:10.493Z,0
2017-03-25T00:57:24.806Z,0
2017-03-25T00:58:39.429Z,0
2017-03-25T00:59:54.415Z,0
2017-03-25T01:01:09.185Z,0
2017-03-25T01:02:24.459Z,0
2017-03-25T01:03:39.350Z,0
2017-03-25T01:04:54.113Z,0
2017-03-25T01:06:08.937Z,0
2017-03-25T01:07:22.973Z,0
2017-03-25T01:08:37.304Z,0
2017-03-25T01:09:51.760Z,0
2017-03-25T01:11:06.144Z,0
2017-03-25T01:12:20.230Z,0
2017-03-25T01:13:34.527Z,0
2017-03-25T01:14:49.716Z,0
2017-03-25T01:16:03.869Z,0
2017-03-25T01:17:17.894Z,0
2017-03-25T01:18:32.636Z,0
2017-03-25T01:19:47.042Z,0
2017-03-25T01:21:01.710Z,0
2017-03-25T01:22:17.102Z,0
2017-03-25T01:23:31.361Z,0
2017-03-25T01:24:45.907Z,0
2017-03-25T01:26:01.109Z,0
2017-03-25T01:27:15.414Z,0
2017-03-25T01:28:29.719Z,0
2017-03-25T01:29:45.651Z,0
2017-03-25T01:31:04.817Z,0
2017-03-25T01:32:24.484Z,0
2017-03-25T01:33:41.848Z,0
2017-03-25T01:34:58.505Z,0
2017-03-25T01:36:18.357Z,0
2017-03-25T01:37:36.582Z,0
2017-03-25T01:38:55.459Z,0
2017-03-25T01:40:12.996Z,0
2017-03-25T01:41:29.141Z,0
2017-03-25T01:42:45.449Z,0
2017-03-25T01:44:03.267Z,0
2017-03-25T01:45:21.470Z,0
2017-03-25T01:46:36.049Z,0
2017-03-25T01:47:51.586Z,0
2017-03-25T01:49:06.314Z,0
2017-03-25T01:50:20.302Z,0
2017-03-25T01:51:35.018Z,0
2017-03-25T01:52:49.129Z,0
2017-03-25T01:54:06.294Z,0
2017-03-25T01:55:20.703Z,0
2017-03-25T01:56:34.876Z,0
2017-03-25T01:57:49.602Z,0
2017-03-25T01:59:03.951Z,0
2017-03-25T02:00:18.101Z,0
2017-03-25T02:01:32.427Z,0
2017-03-25T02:02:46.503Z,0
2017-03-25T02:04:00.840Z,0
2017-03-25T02:05:14.936Z,0
2017-03-25T02:06:29.572Z,0
2017-03-25T02:07:43.680Z,0
2017-03-25T02:08:58.022Z,0
2017-03-25T02:10:12.470Z,0
2017-03-25T02:11:27.004Z,0
2017-03-25T02:12:41.136Z,0
2017-03-25T02:13:55.830Z,0
2017-03-25T02:15:16.284Z,0
2017-03-25T02:16:30.944Z,0
2017-03-25T02:17:44.907Z,0
2017-03-25T02:18:59.470Z,0
2017-03-25T02:20:13.617Z,0
2017-03-25T02:21:27.970Z,0
2017-03-25T02:22:42.032Z,0
2017-03-25T02:23:57.131Z,0
2017-03-25T02:25:11.165Z,0
2017-03-25T02:26:26.608Z,0
2017-03-25T02:27:40.886Z,0
2017-03-25T02:28:55.042Z,0
2017-03-25T02:30:09.274Z,0
2017-03-25T02:31:23.528Z,0
2017-03-25T02:32:37.908Z,0
2017-03-25T02:33:52.531Z,0
2017-03-25T02:35:07.245Z,0
2017-03-25T02:36:21.881Z,0
2017-03-25T02:37:36.021Z,0
2017-03-25T02:38:50.737Z,0
2017-03-25T02:40:06.257Z,0
2017-03-25T02:41:25.183Z,0
2017-03-25T02:42:39.771Z,0
2017-03-25T02:43:54.820Z,0
2017-03-25T02:45:09.352Z,0
2017-03-25T02:46:23.742Z,0
2017-03-25T02:47:38.367Z,0
2017-03-25T02:48:52.961Z,0
2017-03-25T02:50:08.957Z,0
2017-03-25T02:51:24.487Z,0
2017-03-25T02:52:38.630Z,0
2017-03-25T02:53:52.904Z,0
2017-03-25T02:55:06.994Z,0
2017-03-25T02:56:22.014Z,0
2017-03-25T02:57:36.752Z,0
2017-03-25T02:58:51.391Z,0
2017-03-25T03:00:05.497Z,0
2017-03-25T03:01:20.063Z,0
2017-03-25T03:02:34.165Z,0
2017-03-25T03:03:48.860Z,0
2017-03-25T03:05:03.149Z,0
2017-03-25T03:06:17.833Z,0
2017-03-25T03:07:31.979Z,0
2017-03-25T03:08:46.255Z,0
2017-03-25T03:10:00.336Z,0
2017-03-25T03:11:17.205Z,0
2017-03-25T03:12:31.676Z,0
2017-03-25T03:13:45.898Z,0
2017-03-25T03:15:00.041Z,0
2017-03-25T03:16:14.478Z,0
2017-03-25T03:17:29.428Z,0
2017-03-25T03:18:43.758Z,0
2017-03-25T03:19:57.895Z,0
2017-03-25T03:21:12.140Z,0
2017-03-25T03:22:26.213Z,0
2017-03-25T03:23:40.885Z,0
2017-03-25T03:24:58.706Z,0
2017-03-25T03:26:13.279Z,0
2017-03-25T03:27:28.400Z,0
2017-03-25T03:28:43.208Z,0
2017-03-25T03:29:57.249Z,0
2017-03-25T03:31:11.424Z,0
2017-03-25T03:32:25.386Z,0
2017-03-25T03:33:40.374Z,0
2017-03-25T03:34:54.377Z,0
2017-03-25T03:36:17.873Z,0
2017-03-25T03:37:32.241Z,0
2017-03-25T03:38:47.066Z,0
2017-03-25T03:40:01.154Z,0
2017-03-25T03:41:15.272Z,0
2017-03-25T03:42:29.308Z,0
2017-03-25T03:43:44.554Z,0
2017-03-25T03:44:58.598Z,0
2017-03-25T03:46:12.752Z,0
2017-03-25T03:47:26.807Z,0
2017-03-25T03:48:41.488Z,0
2017-03-25T03:49:56.033Z,0
2017-03-25T03:51:10.827Z,0
2017-03-25T03:52:24.918Z,0
2017-03-25T03:53:39.114Z,0
2017-03-25T03:54:53.854Z,0
2017-03-25T03:56:09.214Z,0
2017-03-25T03:57:23.689Z,0
2017-03-25T03:58:38.934Z,0
2017-03-25T03:59:54.123Z,0
2017-03-25T04:01:08.660Z,0
2017-03-25T04:02:23.011Z,0
2017-03-25T04:03:38.649Z,0
2017-03-25T04:04:53.193Z,0
2017-03-25T04:06:08.051Z,0
2017-03-25T04:07:22.366Z,0
2017-03-25T04:08:36.548Z,0
2017-03-25T04:09:50.914Z,0
2017-03-25T04:11:05.197Z,0
2017-03-25T04:12:19.854Z,0
2017-03-25T04:13:34.142Z,0
2017-03-25T04:14:48.590Z,0
2017-03-25T04:16:02.769Z,0
2017-03-25T04:17:16.954Z,0
2017-03-25T04:18:31.157Z,0
2017-03-25T04:19:45.242Z,0
2017-03-25T04:20:59.891Z,0
2017-03-25T04:22:14.019Z,0
2017-03-25T04:23:28.227Z,0
2017-03-25T04:24:42.745Z,0
2017-03-25T04:25:58.053Z,0
2017-03-25T04:27:12.157Z,0
2017-03-25T04:28:28.847Z,0
2017-03-25T04:29:43.282Z,0
2017-03-25T04:30:57.869Z,0
2017-03-25T04:32:11.885Z,0
2017-03-25T04:33:26.126Z,0
2017-03-25T04:34:40.608Z,0
2017-03-25T04:35:54.925Z,0
2017-03-25T04:37:09.093Z,0
2017-03-25T04:38:24.641Z,0
2017-03-25T04:39:40.688Z,0
2017-03-25T04:40:55.653Z,0
2017-03-25T04:42:10.565Z,0
2017-03-25T04:43:24.718Z,0
2017-03-25T04:44:40.647Z,0
2017-03-25T04:45:56.570Z,0
2017-03-25T04:47:11.709Z,0
2017-03-25T04:48:27.349Z,0
2017-03-25T04:49:41.806Z,4
2017-03-25T04:50:56.155Z,0
2017-03-25T04:52:10.152Z,4
2017-03-25T04:53:24.459Z,4
2017-03-25T04:54:38.492Z,4
2017-03-25T04:55:52.944Z,8
2017-03-25T04:57:07.494Z,8
2017-03-25T04:58:21.767Z,12
2017-03-25T04:59:35.819Z,12
2017-03-25T05:00:50.396Z,16
2017-03-25T05:02:04.484Z,20
2017-03-25T05:03:18.801Z,20
2017-03-25T05:04:33.240Z,24
2017-03-25T05:05:47.675Z,28
2017-03-25T05:07:02.230Z,36
2017-03-25T05:08:17.022Z,44
2017-03-25T05:09:31.476Z,52
2017-03-25T05:10:46.134Z,56
2017-03-25T05:12:01.322Z,64
2017-03-25T05:13:15.690Z,76
2017-03-25T05:14:29.687Z,88
2017-03-25T05:15:43.925Z,100
2017-03-25T05:16:58.398Z,112
2017-03-25T05:18:12.639Z,124
2017-03-25T05:19:26.779Z,136
2017-03-25T05:20:41.769Z,156
2017-03-25T05:21:55.910Z,176
2017-03-25T05:23:10.062Z,200
2017-03-25T05:24:24.660Z,228
2017-03-25T05:25:39.707Z,256
2017-03-25T05:26:53.868Z,284
2017-03-25T05:28:08.424Z,316
2017-03-25T05:29:22.527Z,348
2017-03-25T05:30:37.187Z,376
2017-03-25T05:31:51.386Z,412
2017-03-25T05:33:06.249Z,452
2017-03-25T05:34:20.728Z,488
2017-03-25T05:35:35.413Z,532
2017-03-25T05:36:49.864Z,572
2017-03-25T05:38:04.476Z,612
2017-03-25T05:39:18.572Z,656
2017-03-25T05:40:33.647Z,704
2017-03-25T05:41:48.541Z,748
2017-03-25T05:43:03.135Z,800
2017-03-25T05:44:17.991Z,848
2017-03-25T05:45:34.786Z,908
2017-03-25T05:46:48.962Z,964
2017-03-25T05:48:04.283Z,1012
2017-03-25T05:49:19.395Z,1052
2017-03-25T05:50:33.585Z,1104
2017-03-25T05:51:48.228Z,1152
2017-03-25T05:53:03.316Z,1208
2017-03-25T05:54:17.807Z,1256
2017-03-25T05:55:32.883Z,1300
2017-03-25T05:56:46.930Z,1340
2017-03-25T05:58:01.344Z,1376
2017-03-25T05:59:16.355Z,1416
2017-03-25T06:00:31.114Z,1460
2017-03-25T06:01:45.206Z,1512
2017-03-25T06:02:59.614Z,1560
2017-03-25T06:04:14.189Z,1604
2017-03-25T06:05:29.541Z,1644
2017-03-25T06:06:43.877Z,1676
2017-03-25T06:07:58.793Z,1708
2017-03-25T06:09:13.266Z,1744
2017-03-25T06:10:27.933Z,1776
2017-03-25T06:11:42.100Z,1808
2017-03-25T06:12:57.092Z,1844
2017-03-25T06:14:11.650Z,1880
2017-03-25T06:15:26.263Z,1920
2017-03-25T06:16:40.409Z,1960
2017-03-25T06:18:12.147Z,1988
2017-03-25T06:19:27.034Z,2028
2017-03-25T06:20:41.166Z,2060
2017-03-25T06:21:56.030Z,2072
2017-03-25T06:23:11.529Z,2084
2017-03-25T06:24:25.844Z,2100
2017-03-25T06:25:39.873Z,2112
2017-03-25T06:26:54.937Z,2128
2017-03-25T06:28:09.107Z,2156
2017-03-25T06:29:24.065Z,2188
2017-03-25T06:30:38.343Z,2204
2017-03-25T06:31:53.611Z,2220
2017-03-25T06:33:08.723Z,2244
2017-03-25T06:34:23.849Z,2264
2017-03-25T06:35:38.900Z,2280
2017-03-25T06:36:53.475Z,2288
2017-03-25T06:38:08.241Z,2292
2017-03-25T06:39:22.967Z,2312
2017-03-25T06:40:37.376Z,2324
2017-03-25T06:41:52.246Z,2336
2017-03-25T06:43:08.187Z,2328
2017-03-25T06:44:23.008Z,2336
2017-03-25T06:45:39.229Z,2344
2017-03-25T06:46:55.914Z,2352
2017-03-25T06:48:12.283Z,2340
2017-03-25T06:49:29.157Z,2352
2017-03-25T06:50:44.063Z,2356
2017-03-25T06:51:59.956Z,2356
2017-03-25T06:53:14.226Z,2360
2017-03-25T06:54:28.851Z,2356
2017-03-25T06:55:43.342Z,2348
2017-03-25T06:56:58.106Z,2356
2017-03-25T06:58:13.882Z,2372
2017-03-25T06:59:28.241Z,2388
2017-03-25T07:00:42.935Z,2404
2017-03-25T07:01:57.608Z,2424
2017-03-25T07:03:13.979Z,2444
2017-03-25T07:04:28.913Z,2456
2017-03-25T07:05:43.268Z,2456
2017-03-25T07:06:57.391Z,2476
2017-03-25T07:08:11.854Z,2472
2017-03-25T07:09:26.555Z,2492
2017-03-25T07:10:41.449Z,2508
2017-03-25T07:11:55.722Z,2532
2017-03-25T07:13:10.056Z,2560
2017-03-25T07:14:25.435Z,2588
2017-03-25T07:15:39.398Z,2604
2017-03-25T07:16:54.052Z,2632
2017-03-25T07:18:08.834Z,2636
2017-03-25T07:19:23.731Z,2660
2017-03-25T07:20:37.950Z,2680
2017-03-25T07:21:52.336Z,2712
2017-03-25T07:23:06.850Z,2736
2017-03-25T07:24:21.064Z,2760
2017-03-25T07:25:35.715Z,2792
2017-03-25T07:26:50.607Z,2780
2017-03-25T07:28:04.585Z,2792
2017-03-25T07:29:19.855Z,2804
2017-03-25T07:30:35.635Z,2804
2017-03-25T07:31:50.270Z,2816
2017-03-25T07:33:04.323Z,2816
2017-03-25T07:34:19.294Z,2816
2017-03-25T07:35:33.726Z,2816
2017-03-25T07:36:47.954Z,2824
2017-03-25T07:38:03.981Z,2860
2017-03-25T07:39:18.356Z,2864
2017-03-25T07:40:33.213Z,2868
2017-03-25T07:41:47.496Z,2876
2017-03-25T07:43:01.933Z,2888
2017-03-25T07:44:16.806Z,2896
2017-03-25T07:45:31.140Z,2900
2017-03-25T07:46:45.810Z,2908
2017-03-25T07:48:00.090Z,2920
2017-03-25T07:49:15.236Z,2924
2017-03-25T07:50:30.260Z,2920
2017-03-25T07:51:44.716Z,2928
2017-03-25T07:52:58.875Z,2932
2017-03-25T07:54:13.724Z,2936
2017-03-25T07:55:28.138Z,2944
2017-03-25T07:56:43.062Z,2948
2017-03-25T07:57:57.117Z,2948
2017-03-25T07:59:11.436Z,2952
2017-03-25T08:00:25.577Z,2964
2017-03-25T08:01:40.603Z,2964
2017-03-25T08:02:55.973Z,2972
2017-03-25T08:04:11.320Z,2968
2017-03-25T08:05:26.007Z,2960
2017-03-25T08:06:40.630Z,2956
2017-03-25T08:07:55.422Z,2948
2017-03-25T08:09:10.251Z,2940
2017-03-25T08:10:24.829Z,2944
2017-03-25T08:11:40.014Z,2932
2017-03-25T08:12:54.651Z,2920
2017-03-25T08:14:08.826Z,2928
2017-03-25T08:15:23.309Z,2932
2017-03-25T08:16:38.267Z,2936
2017-03-25T08:17:52.632Z,2932
2017-03-25T08:19:08.707Z,2928
2017-03-25T08:20:24.271Z,2932
2017-03-25T08:21:38.028Z,2928
2017-03-25T08:22:51.980Z,2928
2017-03-25T08:24:06.122Z,2932
2017-03-25T08:25:19.829Z,2932
2017-03-25T08:26:33.894Z,2936
2017-03-25T08:27:47.894Z,2924
2017-03-25T08:29:01.658Z,2904
2017-03-25T08:30:15.164Z,2880
2017-03-25T08:31:28.980Z,2840
2017-03-25T08:32:42.743Z,2856
2017-03-25T08:33:56.176Z,2864
2017-03-25T08:35:09.549Z,2900
2017-03-25T08:36:23.335Z,2892
2017-03-25T08:37:37.000Z,2856
2017-03-25T08:38:50.765Z,2824
2017-03-25T08:40:04.112Z,2772
2017-03-25T08:41:17.776Z,2804
2017-03-25T08:42:31.773Z,2852
2017-03-25T08:43:46.438Z,2848
2017-03-25T08:44:59.891Z,2828
2017-03-25T08:46:14.004Z,2752
2017-03-25T08:47:27.779Z,2764
2017-03-25T08:48:41.849Z,2824
2017-03-25T08:49:57.175Z,2872
2017-03-25T08:51:10.739Z,2864
2017-03-25T08:52:24.631Z,2868
2017-03-25T08:53:39.437Z,2856
2017-03-25T08:54:54.911Z,2864
2017-03-25T08:56:09.969Z,2864
2017-03-25T08:57:24.125Z,2852
2017-03-25T08:58:37.794Z,2836
2017-03-25T08:59:52.322Z,2820
2017-03-25T09:01:07.564Z,2856
2017-03-25T09:02:21.249Z,2848
2017-03-25T09:03:34.914Z,2840
2017-03-25T09:04:49.436Z,2836
2017-03-25T09:06:15.586Z,2832
2017-03-25T09:07:29.370Z,2832
2017-03-25T09:08:43.197Z,2848
2017-03-25T09:09:56.548Z,2852
2017-03-25T09:11:10.219Z,2836
2017-03-25T09:12:24.213Z,2840
2017-03-25T09:13:38.694Z,2836
2017-03-25T09:14:52.513Z,2832
2017-03-25T09:16:05.983Z,2808
2017-03-25T09:17:19.623Z,2804
2017-03-25T09:18:33.243Z,2792
2017-03-25T09:19:46.702Z,2792
2017-03-25T09:21:00.379Z,2800
2017-03-25T09:22:13.778Z,2812
2017-03-25T09:23:28.128Z,2800
2017-03-25T09:24:41.516Z,2776
2017-03-25T09:25:55.292Z,2764
2017-03-25T09:27:08.688Z,2796
2017-03-25T09:28:22.535Z,2828
2017-03-25T09:29:36.057Z,2828
2017-03-25T09:30:49.930Z,2820
2017-03-25T09:32:03.395Z,2812
2017-03-25T09:33:16.837Z,2796
2017-03-25T09:34:30.852Z,2804
2017-03-25T09:35:44.957Z,2808
2017-03-25T09:37:01.264Z,2816
2017-03-25T09:38:14.767Z,2828
2017-03-25T09:39:28.563Z,2820
2017-03-25T09:40:42.401Z,2820
2017-03-25T09:41:56.174Z,2836
2017-03-25T09:43:10.036Z,2840
2017-03-25T09:44:24.748Z,2856
2017-03-25T09:46:08.392Z,2828
2017-03-25T09:47:21.887Z,2816
2017-03-25T09:48:35.591Z,2820
2017-03-25T09:49:49.269Z,2828
2017-03-25T09:51:03.243Z,2804
2017-03-25T09:52:17.285Z,2788
2017-03-25T09:53:31.737Z,2760
2017-03-25T09:54:45.714Z,2764
2017-03-25T09:56:00.929Z,2760
2017-03-25T09:57:14.882Z,2756
2017-03-25T09:58:28.378Z,2740
2017-03-25T09:59:43.320Z,2716
2017-03-25T10:00:56.774Z,2744
2017-03-25T10:02:11.368Z,2728
2017-03-25T10:03:24.752Z,2760
2017-03-25T10:04:38.917Z,2760
2017-03-25T10:05:53.371Z,2772
2017-03-25T10:07:08.753Z,2756
2017-03-25T10:08:22.341Z,2740
2017-03-25T10:09:36.408Z,2744
2017-03-25T10:10:51.301Z,2736
2017-03-25T10:12:05.662Z,2736
2017-03-25T10:13:19.484Z,2720
2017-03-25T10:14:52.645Z,2712
2017-03-25T10:16:08.382Z,2684
2017-03-25T10:17:22.067Z,2656
2017-03-25T10:18:36.921Z,2652
2017-03-25T10:19:50.422Z,2652
2017-03-25T10:21:04.627Z,2648
2017-03-25T10:22:18.702Z,2648
2017-03-25T10:23:32.536Z,2644
2017-03-25T10:24:46.040Z,2664
2017-03-25T10:25:59.732Z,2652
2017-03-25T10:27:14.356Z,2644
2017-03-25T10:28:30.188Z,2636
2017-03-25T10:29:44.363Z,2572
2017-03-25T10:30:57.976Z,2568
2017-03-25T10:32:11.585Z,2596
2017-03-25T10:33:25.324Z,2636
2017-03-25T10:34:39.533Z,2636
2017-03-25T10:35:53.075Z,2636
2017-03-25T10:37:06.574Z,2644
2017-03-25T10:38:20.175Z,2648
2017-03-25T10:39:33.979Z,2660
2017-03-25T10:40:47.888Z,2672
2017-03-25T10:42:01.627Z,2668
2017-03-25T10:43:15.889Z,2684
2017-03-25T10:44:32.284Z,2672
2017-03-25T10:45:59.435Z,2680
2017-03-25T10:47:14.020Z,2688
2017-03-25T10:48:27.709Z,2680
2017-03-25T10:49:41.436Z,2688
2017-03-25T10:50:55.415Z,2684
2017-03-25T10:52:10.787Z,2692
2017-03-25T10:53:24.432Z,2712
2017-03-25T10:54:41.105Z,2720
2017-03-25T10:55:55.468Z,2724
2017-03-25T10:57:09.088Z,2732
2017-03-25T10:58:23.926Z,2732
2017-03-25T10:59:37.781Z,2728
2017-03-25T11:00:52.019Z,2732
2017-03-25T11:02:05.772Z,2768
2017-03-25T11:03:19.419Z,2756
2017-03-25T11:04:33.159Z,2732
2017-03-25T11:05:46.741Z,2800
2017-03-25T11:07:00.166Z,2828
2017-03-25T11:08:13.773Z,2848
2017-03-25T11:09:27.195Z,2876
2017-03-25T11:10:41.377Z,2912
2017-03-25T11:11:55.256Z,2908
2017-03-25T11:13:09.174Z,2908
2017-03-25T11:14:22.551Z,2912
2017-03-25T11:15:36.119Z,2928
2017-03-25T11:16:50.160Z,2952
2017-03-25T11:18:03.688Z,2944
2017-03-25T11:19:17.147Z,2988
2017-03-25T11:20:30.904Z,2992
2017-03-25T11:21:44.768Z,2988
2017-03-25T11:22:58.778Z,3000
2017-03-25T11:24:26.937Z,3000
2017-03-25T11:25:40.751Z,2988
2017-03-25T11:26:54.397Z,2976
2017-03-25T11:28:08.140Z,2984
2017-03-25T11:29:21.813Z,2992
2017-03-25T11:30:35.867Z,3008
2017-03-25T11:31:49.839Z,3012
2017-03-25T11:33:03.274Z,3016
2017-03-25T11:34:16.703Z,3012
2017-03-25T11:35:30.406Z,3012
2017-03-25T11:36:43.753Z,3012
2017-03-25T11:38:10.353Z,3000
2017-03-25T11:39:23.754Z,3000
2017-03-25T11:40:37.175Z,2996
2017-03-25T11:41:51.026Z,2996
2017-03-25T11:43:05.094Z,3008
2017-03-25T11:44:18.778Z,3000
2017-03-25T11:45:32.227Z,2984
2017-03-25T11:46:45.578Z,2984
2017-03-25T11:47:58.995Z,2972
2017-03-25T11:49:12.340Z,2972
2017-03-25T11:50:26.266Z,2968
2017-03-25T11:51:39.883Z,2980
2017-03-25T11:52:54.077Z,2980
2017-03-25T11:54:07.452Z,2984
2017-03-25T11:55:21.603Z,2924
2017-03-25T11:56:35.438Z,2912
2017-03-25T11:57:49.204Z,2948
2017-03-25T11:59:02.706Z,2940
2017-03-25T12:00:16.320Z,2912
2017-03-25T12:01:29.794Z,2892
2017-03-25T12:02:44.073Z,2892
2017-03-25T12:03:57.945Z,2900
2017-03-25T12:05:11.432Z,2892
2017-03-25T12:06:25.652Z,2880
2017-03-25T12:07:39.680Z,2884
2017-03-25T12:08:53.653Z,2864
2017-03-25T12:10:07.137Z,2888
2017-03-25T12:11:22.968Z,2880
2017-03-25T12:12:37.736Z,2872
2017-03-25T12:13:52.262Z,2856
2017-03-25T12:15:06.915Z,2856
2017-03-25T12:16:20.727Z,2836
2017-03-25T12:17:34.927Z,2836
2017-03-25T12:18:49.386Z,2844
2017-03-25T12:20:03.241Z,2836
2017-03-25T12:21:17.310Z,2832
2017-03-25T12:22:31.188Z,2824
2017-03-25T12:23:44.702Z,2808
2017-03-25T12:24:58.421Z,2812
2017-03-25T12:26:12.106Z,2804
2017-03-25T12:27:26.531Z,2804
2017-03-25T12:28:40.535Z,2804
2017-03-25T12:29:54.786Z,2800
2017-03-25T12:31:08.699Z,2796
2017-03-25T12:32:22.416Z,2780
2017-03-25T12:33:36.184Z,2768
2017-03-25T12:34:49.985Z,2756
2017-03-25T12:36:03.388Z,2736
2017-03-25T12:37:17.587Z,2728
2017-03-25T12:38:31.826Z,2736
2017-03-25T12:39:45.669Z,2692
2017-03-25T12:40:59.998Z,2704
2017-03-25T12:42:13.879Z,2720
2017-03-25T12:43:27.357Z,2728
2017-03-25T12:44:41.249Z,2720
2017-03-25T12:45:54.953Z,2716
2017-03-25T12:47:09.395Z,2676
2017-03-25T12:48:22.809Z,2712
2017-03-25T12:49:36.709Z,2712
2017-03-25T12:50:50.122Z,2704
2017-03-25T12:52:04.564Z,2692
2017-03-25T12:53:18.066Z,2688
2017-03-25T12:54:32.149Z,2680
2017-03-25T12:55:45.885Z,2676
2017-03-25T12:56:59.798Z,2668
2017-03-25T12:58:13.464Z,2652
2017-03-25T12:59:42.774Z,2628
2017-03-25T13:00:56.139Z,2628
2017-03-25T13:02:09.635Z,2620
2017-03-25T13:03:23.359Z,2620
2017-03-25T13:04:45.919Z,2608
2017-03-25T13:05:59.272Z,2580
2017-03-25T13:07:12.699Z,2604
2017-03-25T13:08:26.121Z,2600
2017-03-25T13:09:39.850Z,2612
2017-03-25T13:10:53.259Z,2612
2017-03-25T13:12:07.053Z,2612
2017-03-25T13:13:20.696Z,2604
2017-03-25T13:14:34.215Z,2592
2017-03-25T13:15:47.693Z,2612
2017-03-25T13:17:01.635Z,2620
2017-03-25T13:18:15.022Z,2624
2017-03-25T13:19:28.550Z,2620
2017-03-25T13:20:42.326Z,2608
2017-03-25T13:21:56.731Z,2608
2017-03-25T13:23:10.099Z,2612
2017-03-25T13:24:23.933Z,2620
2017-03-25T13:25:37.306Z,2616
2017-03-25T13:26:50.799Z,2612
2017-03-25T13:28:06.307Z,2608
2017-03-25T13:29:19.852Z,2608
2017-03-25T13:30:33.542Z,2600
2017-03-25T13:31:47.015Z,2596
2017-03-25T13:33:00.771Z,2584
2017-03-25T13:34:14.408Z,2580
2017-03-25T13:35:28.279Z,2564
2017-03-25T13:36:42.833Z,2552
2017-03-25T13:37:56.803Z,2536
2017-03-25T13:39:11.263Z,2532
2017-03-25T13:40:24.916Z,2516
2017-03-25T13:41:38.697Z,2496
2017-03-25T13:42:52.083Z,2496
2017-03-25T13:44:06.121Z,2508
2017-03-25T13:45:19.585Z,2516
2017-03-25T13:46:33.250Z,2520
2017-03-25T13:47:46.680Z,2504
2017-03-25T13:49:01.141Z,2496
2017-03-25T13:50:14.477Z,2480
2017-03-25T13:51:41.305Z,2448
2017-03-25T13:52:55.084Z,2444
2017-03-25T13:54:08.678Z,2440
2017-03-25T13:55:22.123Z,2428
2017-03-25T13:56:35.685Z,2412
2017-03-25T13:57:49.099Z,2396
2017-03-25T13:59:03.331Z,2392
2017-03-25T14:00:17.418Z,2388
2017-03-25T14:01:31.163Z,2384
2017-03-25T14:02:44.509Z,2368
2017-03-25T14:03:58.645Z,2356
2017-03-25T14:05:12.274Z,2336
2017-03-25T14:06:26.108Z,2320
2017-03-25T14:07:39.774Z,2312
2017-03-25T14:08:54.010Z,2300
2017-03-25T14:10:07.381Z,2288
2017-03-25T14:11:21.952Z,2276
2017-03-25T14:12:35.300Z,2272
2017-03-25T14:13:48.822Z,2272
2017-03-25T14:15:02.588Z,2272
2017-03-25T14:16:16.509Z,2268
2017-03-25T14:17:29.989Z,2264
2017-03-25T14:18:43.919Z,2260
2017-03-25T14:19:57.775Z,2252
2017-03-25T14:21:25.048Z,2248
2017-03-25T14:22:38.515Z,2244
2017-03-25T14:23:52.270Z,2240
2017-03-25T14:25:05.947Z,2232
2017-03-25T14:26:19.656Z,2232
2017-03-25T14:27:33.258Z,2224
2017-03-25T14:28:56.147Z,2216
2017-03-25T14:30:09.509Z,2212
2017-03-25T14:31:22.985Z,2212
2017-03-25T14:32:36.305Z,2208
2017-03-25T14:33:49.734Z,2208
2017-03-25T14:35:03.342Z,2208
2017-03-25T14:36:16.943Z,2216
2017-03-25T14:37:30.430Z,2224
2017-03-25T14:38:43.923Z,2224
2017-03-25T14:39:57.262Z,2220
2017-03-25T14:41:11.852Z,2220
2017-03-25T14:42:26.299Z,2224
2017-03-25T14:43:40.079Z,2188
2017-03-25T14:44:55.639Z,2160
2017-03-25T14:46:09.437Z,2208
2017-03-25T14:47:23.607Z,2232
2017-03-25T14:48:37.467Z,2232
2017-03-25T14:49:50.935Z,2224
2017-03-25T14:51:04.679Z,2224
2017-03-25T14:52:18.177Z,2220
2017-03-25T14:53:31.981Z,2220
2017-03-25T14:54:45.889Z,2216
2017-03-25T14:55:59.467Z,2212
2017-03-25T14:57:13.123Z,2212
2017-03-25T14:58:26.732Z,2212
2017-03-25T14:59:40.385Z,2196
2017-03-25T15:00:54.523Z,2184
2017-03-25T15:02:07.915Z,2180
2017-03-25T15:03:21.824Z,2172
2017-03-25T15:04:35.345Z,2176
2017-03-25T15:05:49.408Z,2180
2017-03-25T15:07:03.185Z,2192
2017-03-25T15:08:16.664Z,2192
2017-03-25T15:09:30.385Z,2192
2017-03-25T15:10:44.321Z,2188
2017-03-25T15:11:58.337Z,2184
2017-03-25T15:13:11.974Z,2192
2017-03-25T15:14:25.777Z,2188
2017-03-25T15:15:39.439Z,2188
2017-03-25T15:16:53.027Z,2188
2017-03-25T15:18:07.402Z,2180
2017-03-25T15:19:21.468Z,2172
2017-03-25T15:20:35.084Z,2172
2017-03-25T15:21:48.506Z,2148
2017-03-25T15:23:02.351Z,2152
2017-03-25T15:24:17.538Z,2152
2017-03-25T15:25:31.525Z,2148
2017-03-25T15:26:45.056Z,2140
2017-03-25T15:27:58.910Z,2132
2017-03-25T15:29:12.786Z,2120
2017-03-25T15:30:27.122Z,2112
2017-03-25T15:31:40.660Z,2104
2017-03-25T15:32:55.154Z,2088
2017-03-25T15:34:09.698Z,2084
2017-03-25T15:35:23.892Z,2068
2017-03-25T15:36:37.764Z,2060
2017-03-25T15:37:51.400Z,2044
2017-03-25T15:39:05.389Z,2032
2017-03-25T15:40:19.824Z,2016
2017-03-25T15:41:33.549Z,2008
2017-03-25T15:42:48.033Z,2000
2017-03-25T15:44:02.211Z,2000
2017-03-25T15:45:15.923Z,1996
2017-03-25T15:46:30.161Z,1984
2017-03-25T15:47:43.840Z,1972
2017-03-25T15:48:58.289Z,1956
2017-03-25T15:50:12.764Z,1944
2017-03-25T15:51:26.809Z,1932
2017-03-25T15:52:41.243Z,1924
2017-03-25T15:53:54.916Z,1904
2017-03-25T15:55:25.302Z,1888
2017-03-25T15:56:39.402Z,1872
2017-03-25T15:57:53.293Z,1856
2017-03-25T15:59:07.589Z,1840
2017-03-25T16:00:21.961Z,1828
2017-03-25T16:01:38.861Z,1816
2017-03-25T16:02:52.988Z,1804
2017-03-25T16:04:06.792Z,1792
2017-03-25T16:05:21.126Z,1776
2017-03-25T16:06:35.225Z,1772
2017-03-25T16:07:49.489Z,1760
2017-03-25T16:09:03.637Z,1748
2017-03-25T16:10:17.274Z,1740
2017-03-25T16:11:30.692Z,1732
2017-03-25T16:12:44.368Z,1720
2017-03-25T16:13:58.155Z,1712
2017-03-25T16:15:12.139Z,1700
2017-03-25T16:16:25.668Z,1700
2017-03-25T16:17:39.733Z,1688
2017-03-25T16:18:53.572Z,1676
2017-03-25T16:20:30.210Z,1656
2017-03-25T16:21:44.061Z,1640
2017-03-25T16:22:58.067Z,1620
2017-03-25T16:24:12.100Z,1608
2017-03-25T16:25:26.533Z,1592
2017-03-25T16:26:40.481Z,1576
2017-03-25T16:27:54.230Z,1556
2017-03-25T16:29:07.860Z,1544
2017-03-25T16:30:22.123Z,1532
2017-03-25T16:31:36.096Z,1512
2017-03-25T16:32:50.522Z,1488
2017-03-25T16:34:04.404Z,1468
2017-03-25T16:35:17.885Z,1448
2017-03-25T16:36:31.460Z,1432
2017-03-25T16:37:45.289Z,1420
2017-03-25T16:39:14.064Z,1384
2017-03-25T16:40:28.106Z,1360
2017-03-25T16:41:41.976Z,1340
2017-03-25T16:42:55.412Z,1316
2017-03-25T16:44:09.025Z,1292
2017-03-25T16:45:22.456Z,1272
2017-03-25T16:46:35.987Z,1240
2017-03-25T16:47:49.988Z,1204
2017-03-25T16:49:03.499Z,1172
2017-03-25T16:50:18.080Z,1144
2017-03-25T16:51:31.986Z,1116
2017-03-25T16:52:46.687Z,1088
2017-03-25T16:54:21.722Z,1056
2017-03-25T16:55:35.650Z,1028
2017-03-25T16:56:53.044Z,1004
2017-03-25T16:58:06.962Z,984
2017-03-25T16:59:20.977Z,968
2017-03-25T17:00:34.867Z,948
2017-03-25T17:01:48.551Z,924
2017-03-25T17:03:03.418Z,904
2017-03-25T17:04:17.319Z,872
2017-03-25T17:05:32.114Z,848